Time;durP1;ratioP1;P1;durP2;ratioP2;P2;SDS_P1;SDS_P2;PMS_P1;PMS_P2;Temp;Humidity;BMP_temperature;BMP_pressure;BME280_temperature;BME280_humidity;BME280_pressure;Samples;Min_cycle;Max_cycle;Signal;HPM_P1;HPM_P2
2022/08/31 00:03:59;;;;;;;7.17;3.10;;;22.50;44.40;;;;;;5047949;28;20511;-71
2022/08/31 00:06:45;;;;;;;5.13;3.40;;;22.50;42.20;;;;;;5051892;28;20447;-71
2022/08/31 00:09:32;;;;;;;4.10;3.10;;;22.50;43.90;;;;;;5045719;28;20844;-71
2022/08/31 00:12:18;;;;;;;5.60;3.30;;;22.40;43.90;;;;;;5048533;28;20968;-71
2022/08/31 00:15:05;;;;;;;4.80;3.27;;;22.50;44.60;;;;;;5048694;28;20479;-71
2022/08/31 00:17:52;;;;;;;6.40;3.37;;;22.50;46.00;;;;;;5050311;28;20455;-71
2022/08/31 00:20:38;;;;;;;4.10;2.77;;;22.50;48.10;;;;;;5046069;28;20447;-72
2022/08/31 00:23:24;;;;;;;5.00;3.60;;;22.40;47.60;;;;;;5049126;28;20504;-71
2022/08/31 00:26:11;;;;;;;5.80;3.17;;;22.40;48.00;;;;;;5050177;28;20435;-71
2022/08/31 00:28:57;;;;;;;4.20;2.83;;;22.40;46.40;;;;;;5044969;28;20457;-72
2022/08/31 00:31:43;;;;;;;4.03;3.07;;;22.40;45.10;;;;;;5051942;28;20817;-71
2022/08/31 00:34:28;;;;;;;7.70;3.30;;;22.40;45.20;;;;;;5052022;28;20442;-71
2022/08/31 00:37:14;;;;;;;4.87;3.33;;;22.40;45.40;;;;;;5043946;28;20462;-71
2022/08/31 00:39:59;;;;;;;12.40;3.63;;;22.40;45.50;;;;;;5053513;28;20478;-72
2022/08/31 00:42:46;;;;;;;5.93;3.50;;;22.40;46.70;;;;;;5052227;28;21076;-71
2022/08/31 00:45:32;;;;;;;6.80;3.50;;;22.40;45.40;;;;;;5049710;28;20514;-71
2022/08/31 00:48:17;;;;;;;7.90;3.90;;;22.40;46.60;;;;;;5049243;28;20479;-71
2022/08/31 00:51:03;;;;;;;4.43;3.20;;;22.40;45.30;;;;;;5049305;28;20545;-72
2022/08/31 00:53:49;;;;;;;5.20;3.90;;;22.40;44.70;;;;;;5054612;28;21254;-71
2022/08/31 00:56:36;;;;;;;5.70;3.37;;;22.40;45.00;;;;;;5048651;28;20617;-71
2022/08/31 00:59:25;;;;;;;4.83;3.10;;;22.50;45.60;;;;;;5047246;28;21003;-72
2022/08/31 01:02:11;;;;;;;5.83;3.03;;;22.40;46.60;;;;;;5055561;28;20530;-71
2022/08/31 01:04:56;;;;;;;4.77;3.40;;;22.40;48.70;;;;;;5050199;28;20474;-72
2022/08/31 01:07:45;;;;;;;5.17;3.60;;;22.20;46.40;;;;;;5044441;28;20462;-71
2022/08/31 01:10:34;;;;;;;7.20;3.37;;;22.20;45.10;;;;;;5056283;28;20968;-71
2022/08/31 01:13:20;;;;;;;5.43;3.87;;;22.20;46.40;;;;;;5047016;28;20463;-71
2022/08/31 01:16:13;;;;;;;6.53;3.63;;;22.20;47.10;;;;;;5058476;28;20482;-72
2022/08/31 01:19:02;;;;;;;4.30;3.27;;;22.20;46.90;;;;;;5046914;28;20479;-71
2022/08/31 01:21:57;;;;;;;6.97;3.80;;;22.10;49.00;;;;;;5047971;28;20459;-71
2022/08/31 01:24:46;;;;;;;5.77;3.27;;;22.10;49.90;;;;;;5053742;28;20483;-71
2022/08/31 01:27:35;;;;;;;4.90;3.43;;;22.00;53.90;;;;;;5048902;28;20555;-72
2022/08/31 01:30:24;;;;;;;5.00;3.60;;;22.00;58.80;;;;;;5052161;28;20443;-72
2022/08/31 01:33:11;;;;;;;7.00;3.70;;;21.90;61.40;;;;;;5053638;28;20440;-71
2022/08/31 01:35:59;;;;;;;5.07;3.77;;;21.90;61.10;;;;;;5049741;28;20483;-71
2022/08/31 01:38:45;;;;;;;6.53;3.97;;;21.80;61.30;;;;;;5051156;28;20486;-71
2022/08/31 01:41:32;;;;;;;6.00;3.50;;;21.70;62.20;;;;;;5052283;28;20488;-71
2022/08/31 01:44:20;;;;;;;6.20;3.30;;;21.50;61.30;;;;;;5049494;28;21029;-72
2022/08/31 01:47:06;;;;;;;9.50;4.30;;;21.60;62.90;;;;;;5047927;28;20957;-71
2022/08/31 01:49:52;;;;;;;6.30;4.20;;;21.50;63.80;;;;;;5049659;28;20546;-71
2022/08/31 01:52:38;;;;;;;4.47;3.50;;;21.60;64.50;;;;;;5049337;28;20525;-71
2022/08/31 01:55:24;;;;;;;6.53;3.77;;;21.50;64.00;;;;;;5050330;28;20831;-71
2022/08/31 01:58:11;;;;;;;6.80;3.53;;;21.30;65.10;;;;;;5045905;28;20455;-71
2022/08/31 02:00:56;;;;;;;6.27;3.60;;;21.30;67.30;;;;;;5051540;28;20839;-71
2022/08/31 02:03:42;;;;;;;5.83;3.97;;;21.20;66.10;;;;;;5049977;28;20471;-71
2022/08/31 02:06:28;;;;;;;7.73;4.50;;;21.20;65.90;;;;;;5048063;28;20447;-72
2022/08/31 02:09:15;;;;;;;9.97;3.87;;;21.20;65.50;;;;;;5048989;28;20455;-71
2022/08/31 02:12:00;;;;;;;5.40;3.87;;;21.20;68.60;;;;;;5049902;28;20484;-71
2022/08/31 02:14:47;;;;;;;6.73;4.10;;;21.10;69.50;;;;;;5054509;28;20462;-71
2022/08/31 02:17:33;;;;;;;5.67;4.00;;;21.10;69.40;;;;;;5042032;28;20530;-72
2022/08/31 02:20:19;;;;;;;6.60;4.10;;;21.10;69.60;;;;;;5056186;28;20605;-71
2022/08/31 02:23:04;;;;;;;5.80;3.27;;;21.10;69.20;;;;;;5048813;28;20449;-71
2022/08/31 02:25:50;;;;;;;6.73;3.63;;;21.10;69.20;;;;;;5048849;28;20448;-72
2022/08/31 02:28:35;;;;;;;6.87;3.97;;;21.00;71.70;;;;;;5046365;28;21111;-71
2022/08/31 02:31:23;;;;;;;5.73;3.23;;;20.90;72.10;;;;;;5050761;28;21056;-71
2022/08/31 02:34:08;;;;;;;9.23;4.33;;;20.90;73.20;;;;;;5053256;28;20558;-71
2022/08/31 02:36:54;;;;;;;8.43;3.87;;;20.90;73.20;;;;;;5044859;28;20471;-71
2022/08/31 02:39:40;;;;;;;9.00;5.20;;;20.90;73.20;;;;;;5046423;28;20830;-71
2022/08/31 02:42:26;;;;;;;14.93;4.30;;;20.90;74.80;;;;;;5052475;28;20917;-71
2022/08/31 02:45:11;;;;;;;5.50;3.90;;;20.70;73.40;;;;;;5045249;28;20611;-71
2022/08/31 02:47:58;;;;;;;7.03;4.10;;;20.70;74.60;;;;;;5049018;28;20456;-71
2022/08/31 02:50:47;;;;;;;8.40;4.13;;;20.70;75.20;;;;;;5048819;28;20536;-71
2022/08/31 02:53:32;;;;;;;7.77;3.80;;;20.70;74.80;;;;;;5045510;28;20973;-71
2022/08/31 02:56:18;;;;;;;5.83;3.80;;;20.80;74.60;;;;;;5047719;28;20658;-71
2022/08/31 02:59:04;;;;;;;4.60;3.60;;;20.80;76.10;;;;;;5049539;28;20586;-71
2022/08/31 03:01:54;;;;;;;6.60;3.43;;;20.80;75.20;;;;;;5050352;28;20952;-71
2022/08/31 03:04:41;;;;;;;9.20;4.20;;;20.80;75.20;;;;;;5045298;28;20448;-71
2022/08/31 03:07:27;;;;;;;4.13;3.43;;;20.80;75.30;;;;;;5046892;28;20519;-71
2022/08/31 03:10:14;;;;;;;4.90;3.77;;;20.70;75.90;;;;;;5052469;28;20499;-71
2022/08/31 03:13:00;;;;;;;7.10;4.13;;;20.70;77.30;;;;;;5048497;28;20463;-71
2022/08/31 03:15:45;;;;;;;4.93;4.00;;;20.70;76.90;;;;;;5046164;28;20462;-71
2022/08/31 03:18:31;;;;;;;5.10;4.50;;;20.60;79.30;;;;;;5045484;28;20470;-71
2022/08/31 03:21:18;;;;;;;11.60;4.50;;;20.50;83.40;;;;;;5048996;28;20519;-71
2022/08/31 03:24:05;;;;;;;5.80;4.43;;;20.50;85.40;;;;;;5045624;28;22932;-71
2022/08/31 03:26:50;;;;;;;7.40;4.73;;;20.50;85.10;;;;;;5049856;28;20442;-71
2022/08/31 03:29:36;;;;;;;6.67;4.50;;;20.60;86.10;;;;;;5047884;28;21142;-71
2022/08/31 03:32:22;;;;;;;6.07;4.00;;;20.60;87.40;;;;;;5046599;28;20451;-71
2022/08/31 03:35:09;;;;;;;5.17;3.97;;;20.70;87.30;;;;;;5045651;28;20448;-71
2022/08/31 03:37:56;;;;;;;5.30;4.27;;;20.70;87.40;;;;;;5052041;28;20610;-72
2022/08/31 03:40:42;;;;;;;7.23;5.17;;;20.60;87.60;;;;;;5046974;28;20521;-71
2022/08/31 03:43:28;;;;;;;9.13;4.70;;;20.70;90.00;;;;;;5046145;28;20982;-71
2022/08/31 03:46:14;;;;;;;6.77;4.80;;;20.70;90.00;;;;;;5045568;28;20452;-71
2022/08/31 03:49:00;;;;;;;4.93;4.43;;;20.70;89.00;;;;;;5048856;28;20478;-72
2022/08/31 03:51:46;;;;;;;14.33;5.50;;;20.60;88.50;;;;;;5044721;28;20525;-71
2022/08/31 03:54:33;;;;;;;5.40;4.50;;;20.60;88.90;;;;;;5047310;28;20470;-71
2022/08/31 03:57:19;;;;;;;6.23;4.97;;;20.60;89.50;;;;;;5044522;28;20861;-71
2022/08/31 04:00:07;;;;;;;5.77;4.80;;;20.60;89.90;;;;;;5049357;28;20467;-71
2022/08/31 04:02:53;;;;;;;6.30;4.87;;;20.60;90.30;;;;;;5047077;28;20466;-71
2022/08/31 04:05:44;;;;;;;4.43;3.70;;;20.60;90.40;;;;;;5046799;28;20459;-71
2022/08/31 04:08:29;;;;;;;5.07;4.40;;;20.50;90.70;;;;;;5054493;28;20471;-71
2022/08/31 04:11:18;;;;;;;8.30;5.07;;;20.50;90.80;;;;;;5049610;28;20433;-71
2022/08/31 04:14:04;;;;;;;7.40;4.70;;;20.40;91.20;;;;;;5052871;28;20514;-71
2022/08/31 04:16:49;;;;;;;8.10;5.63;;;20.30;91.50;;;;;;5046872;28;20482;-71
2022/08/31 04:19:35;;;;;;;10.10;4.40;;;20.20;92.10;;;;;;5049337;28;20695;-71
2022/08/31 04:22:20;;;;;;;5.97;4.97;;;20.30;92.10;;;;;;5049840;28;20438;-71
2022/08/31 04:25:09;;;;;;;5.67;4.70;;;20.30;92.50;;;;;;5049865;28;20474;-71
2022/08/31 04:27:56;;;;;;;6.03;4.50;;;20.40;92.80;;;;;;5050608;28;20447;-71
2022/08/31 04:30:43;;;;;;;6.13;4.60;;;20.50;92.60;;;;;;5053056;28;20450;-71
2022/08/31 04:33:28;;;;;;;9.00;5.57;;;20.50;92.30;;;;;;5052365;28;20455;-71
2022/08/31 04:36:17;;;;;;;5.10;4.47;;;20.50;92.00;;;;;;5049249;28;20526;-71
2022/08/31 04:39:04;;;;;;;5.50;4.30;;;20.40;92.40;;;;;;5050620;28;20842;-71
2022/08/31 04:41:49;;;;;;;8.33;5.13;;;20.30;92.80;;;;;;5055515;28;20466;-71
2022/08/31 04:44:37;;;;;;;7.10;4.90;;;20.20;92.80;;;;;;5047198;28;20451;-71
2022/08/31 04:47:23;;;;;;;8.13;5.40;;;20.10;93.50;;;;;;5053734;28;20812;-72
2022/08/31 04:50:09;;;;;;;7.10;5.47;;;20.10;93.90;;;;;;5051801;28;20939;-72
2022/08/31 04:52:55;;;;;;;12.17;5.67;;;20.00;95.20;;;;;;5049116;28;20470;-72
2022/08/31 04:55:41;;;;;;;8.93;5.33;;;19.90;95.90;;;;;;5049824;28;20455;-72
2022/08/31 04:58:26;;;;;;;6.27;4.90;;;20.00;96.30;;;;;;5051525;28;20487;-71
2022/08/31 05:01:15;;;;;;;6.90;5.63;;;20.00;95.90;;;;;;5048618;28;20455;-72
2022/08/31 05:04:02;;;;;;;9.90;4.73;;;20.00;96.30;;;;;;5047708;28;20498;-72
2022/08/31 05:06:48;;;;;;;6.40;5.17;;;20.10;96.40;;;;;;5048829;28;20447;-71
2022/08/31 05:09:35;;;;;;;5.30;4.60;;;20.10;96.40;;;;;;5053552;28;21024;-71
2022/08/31 05:12:21;;;;;;;5.87;4.27;;;20.10;96.70;;;;;;5054136;28;20486;-72
2022/08/31 05:15:07;;;;;;;7.63;5.10;;;20.00;97.50;;;;;;5048776;28;20463;-72
2022/08/31 05:17:54;;;;;;;6.87;4.80;;;20.10;97.30;;;;;;5050894;28;20482;-72
2022/08/31 05:20:41;;;;;;;5.10;4.47;;;20.10;97.40;;;;;;5047512;28;20586;-71
2022/08/31 05:23:26;;;;;;;7.40;4.90;;;20.00;96.10;;;;;;5046844;28;20494;-71
2022/08/31 05:26:18;;;;;;;9.07;4.80;;;19.90;96.40;;;;;;5045202;28;20536;-71
2022/08/31 05:29:06;;;;;;;8.17;4.60;;;19.90;97.20;;;;;;5049167;28;20471;-72
2022/08/31 05:31:51;;;;;;;7.67;5.23;;;20.00;97.20;;;;;;5052466;28;20446;-72
2022/08/31 05:34:39;;;;;;;10.40;5.80;;;20.10;97.60;;;;;;5047802;28;20797;-71
2022/08/31 05:37:24;;;;;;;8.67;5.03;;;20.20;97.10;;;;;;5053197;28;20515;-72
2022/08/31 05:40:11;;;;;;;6.27;4.73;;;20.20;96.40;;;;;;5049659;28;20475;-72
2022/08/31 05:42:58;;;;;;;6.63;4.70;;;20.30;96.40;;;;;;5047430;28;20513;-72
2022/08/31 05:45:44;;;;;;;37.23;5.33;;;20.30;96.80;;;;;;5048143;28;20525;-71
2022/08/31 05:48:32;;;;;;;7.20;5.43;;;20.20;97.00;;;;;;5050264;28;20455;-72
2022/08/31 05:51:19;;;;;;;6.40;4.87;;;20.20;97.10;;;;;;5051891;28;20458;-71
2022/08/31 05:54:06;;;;;;;6.20;5.40;;;20.20;97.30;;;;;;5047296;28;20448;-72
2022/08/31 05:56:51;;;;;;;9.60;4.87;;;20.10;97.50;;;;;;5051479;28;20514;-72
2022/08/31 05:59:39;;;;;;;6.20;4.90;;;20.20;96.60;;;;;;5047657;28;20455;-71
2022/08/31 06:02:26;;;;;;;9.77;5.43;;;20.20;95.70;;;;;;5049259;28;20427;-71
2022/08/31 06:05:12;;;;;;;8.47;4.53;;;20.10;96.60;;;;;;5048112;28;20967;-71
2022/08/31 06:07:59;;;;;;;10.73;5.60;;;20.10;97.40;;;;;;5050102;28;20424;-71
2022/08/31 06:10:45;;;;;;;6.10;4.70;;;20.10;97.60;;;;;;5050211;28;20419;-71
2022/08/31 06:13:31;;;;;;;8.93;4.57;;;20.20;97.10;;;;;;5049204;28;20451;-71
2022/08/31 06:16:17;;;;;;;7.83;4.57;;;20.20;97.10;;;;;;5047973;28;20431;-71
2022/08/31 06:19:05;;;;;;;8.93;4.33;;;20.10;97.30;;;;;;5052777;28;20483;-71
2022/08/31 06:21:51;;;;;;;6.00;4.67;;;20.20;97.30;;;;;;5045446;28;20451;-71
2022/08/31 06:24:38;;;;;;;6.87;4.80;;;20.20;97.00;;;;;;5045159;28;20991;-72
2022/08/31 06:27:26;;;;;;;4.70;3.80;;;20.30;96.50;;;;;;5051235;28;20423;-71
2022/08/31 06:30:18;;;;;;;6.80;4.30;;;20.30;97.00;;;;;;5047627;28;20450;-71
2022/08/31 06:33:03;;;;;;;10.87;4.87;;;20.40;97.20;;;;;;5046511;28;20451;-72
2022/08/31 06:35:49;;;;;;;7.43;5.50;;;20.50;97.50;;;;;;5048219;28;20429;-71
2022/08/31 06:38:35;;;;;;;6.50;4.93;;;20.40;97.20;;;;;;5051948;28;20474;-72
2022/08/31 06:41:25;;;;;;;5.23;4.63;;;20.50;97.50;;;;;;5050563;28;20430;-72
2022/08/31 06:44:12;;;;;;;5.60;4.80;;;20.50;95.90;;;;;;5044229;28;20482;-72
2022/08/31 06:46:58;;;;;;;5.30;4.80;;;20.50;96.10;;;;;;5044568;28;20472;-71
2022/08/31 06:49:44;;;;;;;6.93;5.00;;;20.50;94.40;;;;;;5051123;28;20475;-71
2022/08/31 06:52:31;;;;;;;6.67;5.00;;;20.60;94.90;;;;;;5048239;28;20550;-72
2022/08/31 06:55:17;;;;;;;8.33;5.27;;;20.60;92.00;;;;;;5046419;28;21039;-72
2022/08/31 06:58:04;;;;;;;7.83;5.60;;;20.40;96.30;;;;;;5049801;28;20471;-72
2022/08/31 07:00:50;;;;;;;8.53;5.40;;;20.30;98.60;;;;;;5044385;28;20451;-71
2022/08/31 07:03:37;;;;;;;8.53;5.70;;;20.20;99.90;;;;;;5048897;28;20877;-71
2022/08/31 07:06:24;;;;;;;12.37;5.93;;;20.00;99.90;;;;;;5050258;28;20432;-71
2022/08/31 07:09:12;;;;;;;14.57;6.50;;;19.80;99.90;;;;;;5049952;28;20439;-71
2022/08/31 07:11:57;;;;;;;11.93;6.43;;;19.60;99.90;;;;;;5047687;28;20443;-71
2022/08/31 07:14:45;;;;;;;9.63;6.00;;;19.50;99.90;;;;;;5047804;28;20424;-71
2022/08/31 07:17:32;;;;;;;8.07;6.53;;;19.20;99.90;;;;;;5050420;28;21013;-71
2022/08/31 07:20:18;;;;;;;8.57;6.73;;;19.10;99.90;;;;;;5046341;28;20534;-71
2022/08/31 07:23:04;;;;;;;6.80;6.10;;;19.10;99.90;;;;;;5047288;28;20663;-72
2022/08/31 07:25:49;;;;;;;14.17;7.23;;;19.10;99.90;;;;;;5045837;28;20972;-71
2022/08/31 07:28:37;;;;;;;12.03;7.17;;;19.00;99.90;;;;;;5050643;28;20829;-71
2022/08/31 07:31:26;;;;;;;11.43;6.57;;;19.10;99.90;;;;;;5043680;28;20464;-71
2022/08/31 07:34:14;;;;;;;15.10;7.00;;;19.00;99.90;;;;;;5047437;28;20434;-71
2022/08/31 07:43:08;;;;;;;7.57;6.40;;;18.90;99.90;;;;;;5046538;28;20467;-71
2022/08/31 07:45:53;;;;;;;13.30;7.87;;;18.90;99.90;;;;;;5047224;28;20426;-71
2022/08/31 07:48:40;;;;;;;9.07;6.30;;;19.00;99.90;;;;;;5049565;28;20666;-71
2022/08/31 07:51:27;;;;;;;8.67;6.10;;;19.10;99.90;;;;;;5046164;28;20830;-71
2022/08/31 07:54:15;;;;;;;7.57;6.70;;;19.20;99.90;;;;;;5048950;28;20459;-71
2022/08/31 07:57:03;;;;;;;12.33;6.80;;;19.20;99.90;;;;;;5051398;28;20446;-71
2022/08/31 07:59:54;;;;;;;9.90;6.57;;;19.30;99.90;;;;;;5041761;28;20479;-71
2022/08/31 08:02:40;;;;;;;10.50;7.23;;;19.30;99.90;;;;;;5050101;28;20445;-71
2022/08/31 08:05:36;;;;;;;9.03;6.10;;;19.30;99.90;;;;;;5046438;28;20480;-72
2022/08/31 08:08:23;;;;;;;15.20;6.53;;;19.40;99.90;;;;;;5048771;28;21003;-72
2022/08/31 08:11:14;;;;;;;11.67;7.50;;;19.50;99.90;;;;;;5042401;28;20456;-71
2022/08/31 08:14:00;;;;;;;10.17;6.97;;;19.50;99.90;;;;;;5044810;28;21018;-71
2022/08/31 08:16:45;;;;;;;9.13;7.47;;;19.50;99.90;;;;;;5044965;28;20570;-71
2022/08/31 08:19:32;;;;;;;16.20;8.43;;;19.50;99.90;;;;;;5046554;28;20459;-72
2022/08/31 08:22:19;;;;;;;11.93;6.90;;;19.50;99.90;;;;;;5046580;28;20439;-72
2022/08/31 08:25:06;;;;;;;10.27;6.93;;;19.50;99.90;;;;;;5048218;28;20450;-71
2022/08/31 08:27:53;;;;;;;10.87;7.60;;;19.50;99.90;;;;;;5046689;28;20447;-72
2022/08/31 08:30:39;;;;;;;8.97;6.80;;;19.40;99.90;;;;;;5045027;28;20510;-72
2022/08/31 08:33:26;;;;;;;9.90;7.20;;;19.30;99.90;;;;;;5048091;28;20479;-72
2022/08/31 08:36:16;;;;;;;9.87;7.43;;;19.40;99.90;;;;;;5045290;28;20983;-72
2022/08/31 08:39:06;;;;;;;11.10;7.80;;;19.40;99.90;;;;;;5045789;28;20502;-71
2022/08/31 08:41:54;;;;;;;14.00;6.70;;;19.40;99.90;;;;;;5048055;28;20509;-72
2022/08/31 08:44:41;;;;;;;11.27;7.47;;;19.40;99.90;;;;;;5050680;28;20462;-72
2022/08/31 08:47:31;;;;;;;11.07;7.97;;;19.50;99.90;;;;;;5044121;28;20459;-72
2022/08/31 08:50:17;;;;;;;11.37;7.60;;;19.50;99.90;;;;;;5046323;28;20448;-71
2022/08/31 08:53:03;;;;;;;14.40;7.83;;;19.60;99.90;;;;;;5052017;28;20458;-71
2022/08/31 08:55:50;;;;;;;9.37;6.70;;;19.50;99.90;;;;;;5046998;28;20787;-72
2022/08/31 08:58:36;;;;;;;10.10;7.00;;;19.40;99.90;;;;;;5050638;28;20482;-72
2022/08/31 09:01:26;;;;;;;13.73;7.60;;;19.30;99.90;;;;;;5046663;28;20455;-72
2022/08/31 09:04:21;;;;;;;9.33;7.27;;;19.20;99.90;;;;;;5047904;28;20957;-72
2022/08/31 09:07:45;;;;;;;9.37;7.13;;;19.30;99.90;;;;;;5054229;28;20454;-71
2022/08/31 09:10:37;;;;;;;11.20;8.70;;;19.20;99.90;;;;;;5047512;28;20451;-72
2022/08/31 09:13:35;;;;;;;13.67;7.90;;;19.20;99.90;;;;;;5046641;28;20979;-72
2022/08/31 09:16:39;;;;;;;8.50;7.10;;;19.30;99.90;;;;;;5051207;28;20430;-72
2022/08/31 09:19:25;;;;;;;12.83;7.60;;;19.30;99.90;;;;;;5043484;28;20486;-72
2022/08/31 09:22:11;;;;;;;10.50;7.27;;;19.40;99.90;;;;;;5050684;28;20480;-72
2022/08/31 09:24:58;;;;;;;8.40;7.50;;;19.40;99.90;;;;;;5049943;28;20466;-72
2022/08/31 09:27:47;;;;;;;10.20;7.03;;;19.20;99.90;;;;;;5049105;28;20582;-71
2022/08/31 09:30:40;;;;;;;10.00;7.60;;;19.20;99.90;;;;;;5050102;28;20435;-71
2022/08/31 09:33:28;;;;;;;8.37;7.23;;;19.10;99.90;;;;;;5047955;28;20419;-72
2022/08/31 09:36:16;;;;;;;10.70;7.23;;;19.10;99.90;;;;;;5051912;28;20444;-71
2022/08/31 09:39:16;;;;;;;10.10;7.33;;;19.10;99.90;;;;;;5043110;28;20487;-72
2022/08/31 09:42:13;;;;;;;8.90;7.43;;;19.20;99.90;;;;;;5052172;28;20534;-72
2022/08/31 09:45:01;;;;;;;12.57;7.70;;;19.20;99.90;;;;;;5045268;28;20430;-72
2022/08/31 09:47:54;;;;;;;8.60;7.70;;;19.30;99.90;;;;;;5049970;28;20463;-72
2022/08/31 09:50:44;;;;;;;8.40;7.07;;;19.40;99.90;;;;;;5049553;28;20430;-72
2022/08/31 09:56:54;;;;;;;14.87;9.23;;;19.50;99.90;;;;;;5054502;28;20475;-72
2022/08/31 09:59:42;;;;;;;16.13;8.30;;;19.60;99.90;;;;;;5049051;28;20465;-72
2022/08/31 10:02:36;;;;;;;9.40;7.30;;;19.70;99.90;;;;;;5046084;28;20430;-72
2022/08/31 10:05:39;;;;;;;10.73;7.40;;;19.80;99.90;;;;;;5046973;28;20528;-72
2022/08/31 10:08:41;;;;;;;9.40;7.83;;;19.90;99.90;;;;;;5047252;28;20547;-72
2022/08/31 10:11:31;;;;;;;10.80;8.20;;;20.00;99.90;;;;;;5049387;28;20431;-72
2022/08/31 10:14:24;;;;;;;9.27;8.20;;;20.00;99.90;;;;;;5051268;28;20424;-72
2022/08/31 10:17:15;;;;;;;13.43;7.30;;;20.10;99.90;;;;;;5050363;28;20419;-72
2022/08/31 10:20:07;;;;;;;8.80;7.27;;;20.20;99.90;;;;;;5049942;28;20533;-72
2022/08/31 10:23:04;;;;;;;11.13;9.10;;;20.30;99.90;;;;;;5043735;28;20812;-71
2022/08/31 10:25:57;;;;;;;8.93;7.83;;;20.40;99.90;;;;;;5048507;28;20438;-72
2022/08/31 10:28:49;;;;;;;12.00;8.33;;;20.50;99.90;;;;;;5051251;28;20463;-72
2022/08/31 10:31:44;;;;;;;10.70;8.70;;;20.60;99.90;;;;;;5045335;28;20992;-71
2022/08/31 10:37:54;;;;;;;11.17;7.90;;;20.70;99.90;;;;;;5049892;28;20440;-72
2022/08/31 10:40:45;;;;;;;8.97;7.80;;;20.80;99.90;;;;;;5061489;22;20491;-88
2022/08/31 10:43:39;;;;;;;10.17;7.70;;;20.90;99.90;;;;;;5065933;28;20469;-87
2022/08/31 10:46:24;;;;;;;8.70;7.60;;;21.00;99.90;;;;;;5047973;28;20456;-87
2022/08/31 10:49:10;;;;;;;10.03;7.50;;;21.10;99.90;;;;;;5046526;28;20425;-87
2022/08/31 10:52:04;;;;;;;9.27;7.20;;;21.20;99.90;;;;;;5045556;28;20452;-86
2022/08/31 10:55:05;;;;;;;9.90;7.40;;;21.30;99.90;;;;;;5047322;28;20479;-87
2022/08/31 10:57:58;;;;;;;9.40;7.43;;;21.50;99.90;;;;;;5048303;28;20518;-88
2022/08/31 11:00:51;;;;;;;9.53;8.20;;;21.60;99.90;;;;;;5044386;28;20431;-87
2022/08/31 11:03:53;;;;;;;7.40;6.60;;;21.80;99.90;;;;;;5048425;28;21006;-87
2022/08/31 11:06:46;;;;;;;9.03;6.97;;;21.90;99.90;;;;;;5046745;28;20537;-87
2022/08/31 11:09:38;;;;;;;13.77;8.17;;;22.10;99.90;;;;;;5046386;28;20518;-87
2022/08/31 11:12:29;;;;;;;8.40;7.00;;;22.20;99.90;;;;;;5042503;28;20447;-88
2022/08/31 11:16:00;;;;;;;10.63;7.23;;;22.20;99.90;;;;;;5043054;28;20983;-87
2022/08/31 11:19:08;;;;;;;10.13;6.30;;;22.30;99.90;;;;;;5044188;28;20494;-88
2022/08/31 11:22:36;;;;;;;8.83;7.60;;;22.20;99.90;;;;;;5042078;28;20455;-87
2022/08/31 11:25:55;;;;;;;8.43;7.60;;;22.10;99.90;;;;;;5017370;28;20991;-88
2022/08/31 11:28:47;;;;;;;7.53;6.73;;;22.00;99.90;;;;;;5019403;28;20594;-88
2022/08/31 11:31:34;;;;;;;7.80;7.00;;;22.00;99.90;;;;;;5043209;28;20517;-87
2022/08/31 11:34:28;;;;;;;8.57;6.70;;;22.00;99.90;;;;;;5068728;22;20493;-72
2022/08/31 11:37:40;;;;;;;13.93;6.80;;;22.00;99.90;;;;;;5070335;28;20447;-72
2022/08/31 11:41:10;;;;;;;8.30;7.40;;;22.00;99.90;;;;;;5065039;28;20475;-73
2022/08/31 11:43:56;;;;;;;12.30;7.50;;;22.00;99.90;;;;;;5065219;28;20450;-73
2022/08/31 11:46:42;;;;;;;10.90;7.30;;;21.90;99.90;;;;;;5087080;22;20506;-70
2022/08/31 11:49:43;;;;;;;8.60;6.67;;;21.80;99.90;;;;;;5027208;28;20984;-71
2022/08/31 11:52:37;;;;;;;13.60;7.20;;;21.90;99.90;;;;;;5027676;28;20445;-72
2022/08/31 11:55:29;;;;;;;6.83;6.13;;;21.90;99.90;;;;;;5028855;28;20460;-72
2022/08/31 11:58:32;;;;;;;11.13;7.23;;;22.00;99.90;;;;;;5015038;28;20497;-72
2022/08/31 12:01:34;;;;;;;7.80;7.00;;;22.00;99.90;;;;;;5002569;28;20468;-72
2022/08/31 12:04:59;;;;;;;9.80;6.97;;;22.00;99.90;;;;;;5006656;28;20761;-72
2022/08/31 12:07:47;;;;;;;10.20;7.73;;;21.80;99.90;;;;;;5004833;28;20450;-71
2022/08/31 12:10:36;;;;;;;7.83;6.77;;;21.70;99.90;;;;;;5010276;28;20432;-72
2022/08/31 12:13:44;;;;;;;10.90;6.80;;;21.70;99.90;;;;;;5009532;28;20434;-72
2022/08/31 12:16:45;;;;;;;8.83;7.17;;;21.70;99.90;;;;;;5008751;28;20437;-72
2022/08/31 12:20:01;;;;;;;11.93;8.10;;;21.60;99.90;;;;;;5005706;28;20473;-72
2022/08/31 12:26:37;;;;;;;10.40;7.90;;;21.40;99.90;;;;;;5011547;28;20958;-72
2022/08/31 12:29:27;;;;;;;9.53;7.03;;;21.40;99.90;;;;;;5011625;28;20931;-71
2022/08/31 12:32:34;;;;;;;10.57;8.73;;;21.50;99.90;;;;;;5011801;28;21167;-72
2022/08/31 12:35:22;;;;;;;8.17;7.00;;;21.50;99.90;;;;;;5008877;28;20450;-72
2022/08/31 12:38:17;;;;;;;16.63;8.03;;;21.50;99.90;;;;;;5013873;28;20468;-72
2022/08/31 12:41:05;;;;;;;13.17;8.20;;;21.60;99.90;;;;;;5012267;28;20580;-72
2022/08/31 12:43:52;;;;;;;11.07;8.57;;;21.60;99.90;;;;;;5013019;28;20449;-72
2022/08/31 12:47:05;;;;;;;9.10;7.00;;;21.60;99.90;;;;;;5009611;28;20822;-71
2022/08/31 12:50:06;;;;;;;8.93;7.63;;;21.60;99.90;;;;;;4989997;28;20970;-72
2022/08/31 12:53:23;;;;;;;9.67;8.23;;;21.60;99.90;;;;;;5010523;28;20449;-72
2022/08/31 12:56:14;;;;;;;10.10;7.90;;;21.60;99.90;;;;;;5013829;28;21093;-72
2022/08/31 12:59:11;;;;;;;8.60;7.70;;;21.50;99.90;;;;;;5012717;28;20834;-71
2022/08/31 13:01:59;;;;;;;11.20;7.87;;;21.60;99.90;;;;;;5011121;28;20448;-72
2022/08/31 13:04:46;;;;;;;8.83;7.90;;;21.60;99.90;;;;;;5011113;28;20457;-72
2022/08/31 13:07:35;;;;;;;10.70;7.20;;;21.70;99.90;;;;;;5014065;28;20489;-71
2022/08/31 13:10:32;;;;;;;8.43;7.43;;;21.70;99.90;;;;;;5009582;28;20457;-71
2022/08/31 13:13:22;;;;;;;11.43;7.23;;;21.80;99.90;;;;;;5011583;28;20454;-72
2022/08/31 13:16:08;;;;;;;7.70;6.03;;;21.90;99.90;;;;;;5008231;28;20468;-71
2022/08/31 13:19:01;;;;;;;17.67;7.13;;;22.30;99.90;;;;;;5012052;28;20476;-71
2022/08/31 13:21:51;;;;;;;6.87;4.97;;;22.60;99.90;;;;;;5009572;28;20617;-72
2022/08/31 13:24:39;;;;;;;8.80;5.60;;;23.20;99.90;;;;;;5009311;28;20811;-72
2022/08/31 13:27:29;;;;;;;6.37;5.63;;;23.90;99.90;;;;;;5007914;28;20473;-72
2022/08/31 13:30:18;;;;;;;7.30;5.30;;;24.60;94.70;;;;;;5008631;28;20454;-72
2022/08/31 13:33:20;;;;;;;7.43;4.87;;;25.20;85.20;;;;;;5011611;28;20461;-72
2022/08/31 13:36:12;;;;;;;9.40;5.30;;;25.60;66.70;;;;;;5011006;28;20457;-72
2022/08/31 13:39:00;;;;;;;10.40;6.37;;;26.00;72.10;;;;;;5011917;28;20476;-72
2022/08/31 13:41:56;;;;;;;7.97;5.60;;;26.30;71.70;;;;;;5010335;28;20453;-72
2022/08/31 13:44:44;;;;;;;5.90;5.07;;;26.60;65.00;;;;;;5011465;28;20450;-72
2022/08/31 13:47:33;;;;;;;6.63;4.70;;;26.90;65.10;;;;;;5011942;28;20848;-72
2022/08/31 13:50:21;;;;;;;5.13;4.33;;;27.10;53.80;;;;;;5005320;28;20476;-72
2022/08/31 13:53:07;;;;;;;11.30;4.27;;;27.00;44.20;;;;;;5011726;28;20544;-72
2022/08/31 13:55:52;;;;;;;15.70;5.20;;;27.00;45.40;;;;;;5010411;28;20547;-72
2022/08/31 13:58:38;;;;;;;4.73;3.70;;;27.00;41.60;;;;;;5008129;28;20600;-72
2022/08/31 14:01:26;;;;;;;6.37;4.20;;;26.90;41.10;;;;;;5010825;28;20441;-72
2022/08/31 14:04:37;;;;;;;7.93;5.10;;;26.80;40.20;;;;;;5010109;28;20577;-72
2022/08/31 14:07:25;;;;;;;7.40;5.17;;;26.70;48.10;;;;;;5013558;28;20489;-72
2022/08/31 14:10:18;;;;;;;8.03;4.97;;;26.60;54.80;;;;;;5006244;28;20963;-72
2022/08/31 14:13:08;;;;;;;9.70;5.00;;;26.50;57.80;;;;;;5007442;28;20802;-72
2022/08/31 14:15:56;;;;;;;6.23;4.87;;;26.30;60.30;;;;;;5010395;28;20441;-72
2022/08/31 14:18:46;;;;;;;7.70;5.10;;;26.00;56.30;;;;;;5007989;28;20473;-72
2022/08/31 14:21:33;;;;;;;8.77;4.50;;;26.20;56.30;;;;;;5009149;28;20601;-71
2022/08/31 14:24:19;;;;;;;8.40;4.73;;;26.30;53.30;;;;;;5009771;28;21109;-72
2022/08/31 14:27:05;;;;;;;7.63;4.40;;;26.40;46.10;;;;;;5006101;28;20811;-72
2022/08/31 14:29:51;;;;;;;6.00;3.93;;;26.40;39.20;;;;;;5007775;28;21062;-72
2022/08/31 14:32:37;;;;;;;9.30;3.87;;;26.30;40.20;;;;;;5008160;28;20470;-72
2022/08/31 14:35:26;;;;;;;9.47;4.57;;;26.30;37.20;;;;;;5008814;28;20949;-73
2022/08/31 14:38:14;;;;;;;4.97;3.70;;;26.20;39.40;;;;;;5005425;28;20469;-72
2022/08/31 14:40:59;;;;;;;6.13;4.60;;;26.20;38.90;;;;;;5009510;28;20957;-73
2022/08/31 14:43:47;;;;;;;10.73;4.90;;;26.20;39.50;;;;;;5005950;28;20854;-72
2022/08/31 14:46:33;;;;;;;5.90;3.80;;;26.30;39.80;;;;;;5012159;28;20453;-72
2022/08/31 14:49:19;;;;;;;4.97;4.37;;;26.20;42.20;;;;;;5008022;28;20440;-72
2022/08/31 14:52:07;;;;;;;5.30;3.87;;;26.10;39.50;;;;;;5010433;28;20934;-72
2022/08/31 14:54:53;;;;;;;6.23;3.63;;;26.10;38.00;;;;;;5008883;28;20734;-72
2022/08/31 14:57:42;;;;;;;7.13;4.20;;;26.00;39.80;;;;;;5008217;28;20503;-72